Townsend, TN

7:02 PM EDT on September 20, 2014 (GMT -0400)
Franklin | Change Station
CLOSE
Current Station
Airport
Location: Franklin,
Elevation: 2021 ft
Nearby Weather Stations

Elev 2021 ft 35.22 °N, 83.42 °W | Updated 7 minutes ago

Partly Cloudy
Partly Cloudy
73 °F
Feels Like 73 °F
N
0
Wind Variable Wind from North
Gusts mph

Today
High -- | Low -- °F
--% Chance of Precip.
Yesterday
High -- | Low -- °F
Precip. -- in
7:21 AM 7:34 PM
Waning Crescent, 10% visible
Pressure 30.10 in
Visibility 10.0 miles
Clouds
Dew Point 56 °F
Humidity 55%
Rainfall 0.00 in
Snow Depth Not available.
UV Not available.
Pollen 6.50 out of 12
Air Quality Not available.
Flu Activity Not available.
METAR K1A5 202255Z AUTO 00000KT 10SM 23/13 A3010 RMK AO2 T02290134

More Conditions Fewer Conditions

Pressure 30.10 in
Visibility 10.0 miles
Clouds
Dew Point 56 °F
Humidity 55%
Rainfall 0.00 in
Snow Depth Not available.
UV Not available.
Pollen 6.50 out of 12
Air Quality Not available.
Flu Activity Not available.
METAR K1A5 202255Z AUTO 00000KT 10SM 23/13 A3010 RMK AO2 T02290134

More Conditions Fewer Conditions

10-Day Weather Forecast

Almanac

Astronomy

Sep. 20, 2014 Rise Set
Actual Time 7:21 AM EDT 7:34 PM EDT
Civil Twilight 6:56 AM EDT 8:00 PM EDT
Nautical Twilight 6:26 AM EDT 8:30 PM EDT
Astronomical Twilight 5:55 AM EDT 9:00 PM EDT
Moon 4:05 AM EDT 5:33 PM EDT
Length of Visible Light 13h 04m
Length of Day
12h 13m
Tomorrow will be 2m 14s shorter.
Waning Crescent, 10% of the Moon is Illuminated
Today
Waning Crescent
Sep 24
New
Oct 1
First Quarter
Oct 8
Full
Oct 15
Last Quarter

Today's Extremes

State Highs State Lows

Community

WunderPhotos

Upload Photos

1,754,972 photos uploaded!

WunderBlogs® & News

Nearby

Snow Depth

Station Depth Elevation
No new snow has been reported.

Earthquake Activity

City Distance Mag. Time & Date
Sweetwater, Tennessee 36 miles 2.5 3:54 PM EDT
2014-09-20
Minimum magnitude displayed is 2.5.

Coastal Water Temperatures

Place Temperature
No Stations Reporting

Nearby Weather Stations